createdAt,value
2023-04-18T00:08:10.596Z,93808.19
2023-04-18T00:23:14.223Z,93815.63
2023-04-18T00:38:16.234Z,93812.19
2023-04-18T00:53:18.186Z,93796.81
2023-04-18T01:08:21.896Z,93791.53
2023-04-18T01:23:23.847Z,93780.28
2023-04-18T01:38:25.846Z,93782.09
2023-04-18T01:53:27.793Z,93783.00
2023-04-18T02:08:31.012Z,93767.47
2023-04-18T02:23:33.068Z,93787.22
2023-04-18T02:38:35.010Z,93791.09
2023-04-18T02:53:36.940Z,93778.97
2023-04-18T03:08:38.912Z,93786.66
2023-04-18T03:23:41.078Z,93807.03
2023-04-18T03:38:43.246Z,93827.09
2023-04-18T03:53:45.075Z,93813.38
2023-04-18T04:08:46.969Z,93830.28
2023-04-18T04:23:48.992Z,93828.94
2023-04-18T04:38:52.570Z,93844.28
2023-04-18T04:53:54.424Z,93853.16
2023-04-18T05:08:57.663Z,93857.97
2023-04-18T05:23:59.525Z,93868.31
2023-04-18T05:39:01.692Z,93868.69
2023-04-18T05:54:04.506Z,93870.88
2023-04-18T06:09:06.454Z,93878.72
2023-04-18T06:24:08.564Z,93884.38
2023-04-18T06:39:10.494Z,93876.25
2023-04-18T06:54:12.566Z,93877.97
2023-04-18T07:09:14.668Z,93887.16
2023-04-18T07:24:16.810Z,93899.25
2023-04-18T07:39:18.802Z,93896.66
2023-04-18T07:54:20.734Z,93899.44
2023-04-18T08:09:22.632Z,93913.38
2023-04-18T08:24:24.554Z,93910.41
2023-04-18T08:39:26.444Z,93927.34
2023-04-18T08:54:30.610Z,93915.50
2023-04-18T09:09:50.234Z,93913.53
2023-04-18T09:24:57.674Z,93904.56
2023-04-18T09:39:59.577Z,93894.91
2023-04-18T09:55:04.530Z,93903.84
2023-04-18T10:10:07.125Z,93898.50
2023-04-18T10:25:09.190Z,93886.00
2023-04-18T10:40:11.341Z,93880.41
2023-04-18T10:55:15.975Z,93888.31
2023-04-18T11:10:24.029Z,93877.28
2023-04-18T11:25:32.421Z,93852.22
2023-04-18T11:40:35.837Z,93841.06
2023-04-18T11:55:37.783Z,93844.50
2023-04-18T12:10:51.192Z,93864.19
2023-04-18T12:26:03.649Z,93856.84
2023-04-18T12:41:05.770Z,93856.66
2023-04-18T12:56:08.173Z,93860.28
2023-04-18T13:11:09.991Z,93871.47
2023-04-18T13:26:11.822Z,93870.97
2023-04-18T13:41:13.918Z,93886.63
2023-04-18T13:56:15.878Z,93875.47
2023-04-18T14:11:17.866Z,93880.91
2023-04-18T14:26:20.749Z,93886.13
2023-04-18T14:41:22.732Z,93897.09
2023-04-18T14:56:24.869Z,93910.22
2023-04-18T15:11:27.478Z,93923.59
2023-04-18T15:26:31.072Z,93934.31
2023-04-18T15:41:36.345Z,93944.56
2023-04-18T15:56:38.224Z,93953.22
2023-04-18T16:11:40.124Z,93949.91
2023-04-18T16:26:42.024Z,93975.16
2023-04-18T16:41:43.871Z,93976.06
2023-04-18T16:56:45.874Z,93971.38
2023-04-18T17:11:47.818Z,93981.84
2023-04-18T17:26:49.992Z,94002.78
2023-04-18T17:41:51.916Z,94003.75
2023-04-18T17:56:53.936Z,94016.25
2023-04-18T18:11:56.209Z,94036.50
2023-04-18T18:26:59.063Z,94050.03
2023-04-18T18:42:01.169Z,94060.50
2023-04-18T18:57:03.119Z,94066.63
2023-04-18T19:12:05.832Z,94064.47
2023-04-18T19:27:08.071Z,94066.13
2023-04-18T19:42:10.489Z,94058.72
2023-04-18T19:57:12.468Z,94058.41
2023-04-18T20:12:14.563Z,94052.22
2023-04-18T20:27:18.958Z,94045.34
2023-04-18T20:42:21.217Z,94050.06
2023-04-18T20:57:23.164Z,94041.31
2023-04-18T21:12:25.014Z,94042.06
2023-04-18T21:27:26.927Z,94047.47
2023-04-18T21:42:28.885Z,94034.38
2023-04-18T21:57:30.775Z,94034.09
2023-04-18T22:12:32.919Z,94034.31
2023-04-18T22:27:34.731Z,94032.28
2023-04-18T22:42:38.052Z,94028.47
2023-04-18T22:57:40.619Z,94015.88
2023-04-18T23:12:42.487Z,93988.84
2023-04-18T23:27:44.415Z,93991.00
2023-04-18T23:42:47.294Z,93982.09
2023-04-18T23:57:49.236Z,93980.16
